HTSU

Sumbawanga Airport

Sumbawanga, Tanzania
METAR HTSU 251700Z 00000KT 9999 FEW020 21/07 Q1019
Observed Flight Rules
Sep-25 @ 17:00 UTC (2 hours ago) Visual Flight Rules
Visibility Clouds
10,000+ meters
  • Few at 2,000' AGL
Temperatures Readings
Current 21°C / 70°F
Dewpoint 7°C / 45°F
Humidity 40%
Altimeter 30.09" Hg
Pressure 1019 hPa
Elevation 1804
METAR HTSU 251700Z 00000KT 9999 FEW020 21/07 Q1019
Observed Flight Rules
Sep-25 @ 17:00 UTC
(2 hours ago)
VFR
Clouds
  • Few at 2,000' AGL
Temperature Dewpoint
21°C / 70°F 7°C / 45°F
Humidity Altimeter Pressure
40% 30.09" Hg 1019 hPa